Time;durP1;ratioP1;P1;durP2;ratioP2;P2;SDS_P1;SDS_P2;PMS_P1;PMS_P2;Temp;Humidity;BMP_temperature;BMP_pressure;BME280_temperature;BME280_humidity;BME280_pressure;Samples;Min_cycle;Max_cycle;Signal;HPM_P1;HPM_P2
2024/04/13 00:02:19;;;;;;;8.87;8.10;;;18.00;99.90;;;;;;5449801;26;20268;-60
2024/04/13 00:04:45;;;;;;;7.33;6.80;;;17.90;99.90;;;;;;5452014;26;20362;-60
2024/04/13 00:07:10;;;;;;;7.90;7.20;;;17.90;99.90;;;;;;5455647;26;20560;-60
2024/04/13 00:09:36;;;;;;;7.43;6.77;;;17.90;99.90;;;;;;5454852;26;20334;-60
2024/04/13 00:12:02;;;;;;;7.73;7.13;;;17.80;99.90;;;;;;5453698;26;20263;-60
2024/04/13 00:14:28;;;;;;;8.50;7.80;;;17.80;99.90;;;;;;5455377;26;20831;-60
2024/04/13 00:16:54;;;;;;;8.83;7.73;;;17.80;99.90;;;;;;5423090;26;20435;-60
2024/04/13 00:19:19;;;;;;;7.93;7.30;;;17.70;99.90;;;;;;5455030;26;20242;-60
2024/04/13 00:21:45;;;;;;;8.20;7.50;;;17.70;99.90;;;;;;5421556;26;20258;-60
2024/04/13 00:24:11;;;;;;;7.53;6.87;;;17.60;99.90;;;;;;5390183;26;20241;-60
2024/04/13 00:26:37;;;;;;;7.30;6.70;;;17.60;99.90;;;;;;5422794;26;20221;-60
2024/04/13 00:29:06;;;;;;;7.90;7.20;;;17.50;99.90;;;;;;5430996;26;20441;-60
2024/04/13 00:31:32;;;;;;;8.47;7.70;;;17.50;99.90;;;;;;5418606;26;20215;-60
2024/04/13 00:33:58;;;;;;;8.83;7.17;;;17.50;99.90;;;;;;5424446;26;20776;-60
2024/04/13 00:36:24;;;;;;;8.20;7.43;;;17.50;99.90;;;;;;5418861;26;20436;-60
2024/04/13 00:38:50;;;;;;;8.37;7.53;;;17.50;99.90;;;;;;5418539;26;20219;-60
2024/04/13 00:41:18;;;;;;;7.60;7.10;;;17.50;99.90;;;;;;5418967;26;20561;-60
2024/04/13 00:43:43;;;;;;;8.20;7.40;;;17.50;99.90;;;;;;5382483;26;20455;-60
2024/04/13 00:46:16;;;;;;;9.23;8.30;;;17.50;99.90;;;;;;5430510;26;20501;-60
2024/04/13 00:48:42;;;;;;;7.60;6.97;;;17.40;99.90;;;;;;5418321;26;20361;-60
2024/04/13 00:51:12;;;;;;;8.30;7.50;;;17.50;99.90;;;;;;5419082;26;20437;-60
2024/04/13 00:53:41;;;;;;;8.80;7.87;;;17.40;99.90;;;;;;5418106;26;20854;-60
2024/04/13 00:56:08;;;;;;;8.67;7.97;;;17.40;99.90;;;;;;5434783;26;20793;-60
2024/04/13 00:58:38;;;;;;;8.60;7.73;;;17.40;99.90;;;;;;5429535;26;20505;-60
2024/04/13 01:01:05;;;;;;;8.50;7.70;;;17.40;99.90;;;;;;5418813;26;20433;-60
2024/04/13 01:03:35;;;;;;;9.03;8.13;;;17.40;99.90;;;;;;5416877;26;20469;-60
2024/04/13 01:06:01;;;;;;;9.53;8.13;;;17.50;99.90;;;;;;5418701;26;20496;-60
2024/04/13 01:08:28;;;;;;;8.63;7.93;;;17.40;99.90;;;;;;5418881;26;21006;-60
2024/04/13 01:10:57;;;;;;;8.20;7.40;;;17.40;99.90;;;;;;5357609;26;20630;-60
2024/04/13 01:13:23;;;;;;;9.13;8.20;;;17.40;99.90;;;;;;5436627;26;20511;-60
2024/04/13 01:15:49;;;;;;;8.10;7.33;;;17.40;99.90;;;;;;5453926;26;20926;-60
2024/04/13 01:18:14;;;;;;;8.70;7.90;;;17.40;99.90;;;;;;5441290;26;20250;-59
2024/04/13 01:20:41;;;;;;;9.83;8.83;;;17.30;99.90;;;;;;5418160;26;20223;-60
2024/04/13 01:23:11;;;;;;;9.47;8.67;;;17.30;99.90;;;;;;5417387;26;20307;-60
2024/04/13 01:25:41;;;;;;;8.30;7.57;;;17.20;99.90;;;;;;5417790;26;20421;-60
2024/04/13 01:28:07;;;;;;;8.63;8.03;;;17.30;99.90;;;;;;5418125;26;20936;-60
2024/04/13 01:30:35;;;;;;;8.63;7.80;;;17.30;99.90;;;;;;5418080;26;20552;-60
2024/04/13 01:33:01;;;;;;;9.07;8.30;;;17.20;99.90;;;;;;5418380;26;20501;-60
2024/04/13 01:35:27;;;;;;;9.03;7.90;;;17.20;99.90;;;;;;5387212;26;20488;-60
2024/04/13 01:37:53;;;;;;;8.70;7.80;;;17.20;99.90;;;;;;5417430;26;20934;-60
2024/04/13 01:40:19;;;;;;;9.47;8.30;;;17.20;99.90;;;;;;5416812;26;20293;-60
2024/04/13 01:42:45;;;;;;;11.57;8.00;;;17.20;99.90;;;;;;5417558;26;20610;-60
2024/04/13 01:45:11;;;;;;;10.90;8.30;;;17.10;99.90;;;;;;5417949;26;20231;-60
2024/04/13 01:47:38;;;;;;;9.67;8.67;;;17.10;99.90;;;;;;5417419;26;20514;-60
2024/04/13 01:50:04;;;;;;;9.80;8.43;;;17.10;99.90;;;;;;5416866;26;20453;-60
2024/04/13 01:52:30;;;;;;;9.10;8.40;;;17.10;99.90;;;;;;5417700;26;20449;-60
2024/04/13 01:54:56;;;;;;;8.60;7.80;;;17.10;99.90;;;;;;5417369;26;20820;-60
2024/04/13 01:57:22;;;;;;;8.43;7.63;;;17.00;99.90;;;;;;5418171;26;20219;-60
2024/04/13 01:59:48;;;;;;;9.70;8.67;;;17.00;99.90;;;;;;5385685;26;20520;-60
2024/04/13 02:02:14;;;;;;;8.00;7.30;;;17.10;99.90;;;;;;5415537;26;20845;-60
2024/04/13 02:04:40;;;;;;;8.50;7.70;;;17.00;99.90;;;;;;5413439;26;20247;-60
2024/04/13 02:07:05;;;;;;;8.90;8.00;;;17.10;99.90;;;;;;5414007;26;20285;-60
2024/04/13 02:09:33;;;;;;;8.33;7.47;;;17.00;99.90;;;;;;5417673;26;20468;-60
2024/04/13 02:11:59;;;;;;;8.60;7.90;;;17.10;99.90;;;;;;5417219;26;20548;-60
2024/04/13 02:14:25;;;;;;;9.60;8.70;;;17.10;99.90;;;;;;5386111;26;20457;-60
2024/04/13 02:16:51;;;;;;;9.60;8.53;;;17.10;99.90;;;;;;5415812;26;20514;-60
2024/04/13 02:19:17;;;;;;;10.30;8.40;;;17.10;99.90;;;;;;5416793;26;20984;-60
2024/04/13 02:21:42;;;;;;;8.27;7.57;;;17.10;99.90;;;;;;5385599;26;20231;-60
2024/04/13 02:24:08;;;;;;;9.40;7.83;;;17.10;99.90;;;;;;5357349;26;20264;-60
2024/04/13 02:26:34;;;;;;;10.77;8.53;;;17.10;99.90;;;;;;5417911;26;20274;-60
2024/04/13 02:29:00;;;;;;;8.37;7.53;;;17.10;99.90;;;;;;5416147;26;20948;-60
2024/04/13 02:31:26;;;;;;;10.47;8.20;;;17.10;99.90;;;;;;5416321;26;20238;-60
2024/04/13 02:33:51;;;;;;;8.43;7.63;;;17.10;99.90;;;;;;5417030;26;20252;-60
2024/04/13 02:36:17;;;;;;;9.23;8.40;;;17.10;99.90;;;;;;5386152;26;20227;-60
2024/04/13 02:38:43;;;;;;;8.80;7.90;;;17.10;99.90;;;;;;5416900;26;20327;-60
2024/04/13 02:41:09;;;;;;;9.33;8.37;;;17.10;99.90;;;;;;5417031;26;20290;-60
2024/04/13 02:43:38;;;;;;;8.53;7.80;;;17.10;99.90;;;;;;5417345;26;20547;-60
2024/04/13 02:46:09;;;;;;;10.50;8.30;;;17.20;99.90;;;;;;5416809;26;20351;-60
2024/04/13 02:48:39;;;;;;;8.87;7.93;;;17.10;99.90;;;;;;5386121;26;20551;-59
2024/04/13 02:51:06;;;;;;;9.27;8.43;;;17.10;99.90;;;;;;5416382;26;20608;-60
2024/04/13 02:53:35;;;;;;;8.57;7.77;;;17.10;99.90;;;;;;5417472;26;20488;-60
2024/04/13 02:56:02;;;;;;;7.70;7.10;;;17.10;99.90;;;;;;5416601;26;20513;-60
2024/04/13 02:58:28;;;;;;;8.97;8.20;;;17.20;99.90;;;;;;5417008;26;20584;-60
2024/04/13 03:00:59;;;;;;;8.77;8.07;;;17.10;99.90;;;;;;5416389;26;20452;-60
2024/04/13 03:03:26;;;;;;;8.43;7.73;;;17.20;99.90;;;;;;5417445;26;20509;-60
2024/04/13 03:06:16;;;;;;;8.57;7.77;;;17.10;99.90;;;;;;5416561;26;20775;-60
2024/04/13 03:08:42;;;;;;;9.53;7.87;;;17.10;99.90;;;;;;5416186;26;20449;-60
2024/04/13 03:11:14;;;;;;;7.13;6.60;;;17.00;99.90;;;;;;5415163;26;20582;-60
2024/04/13 03:13:40;;;;;;;9.37;7.80;;;17.00;99.90;;;;;;5417192;26;20223;-60
2024/04/13 03:16:09;;;;;;;9.20;8.40;;;17.00;99.90;;;;;;5417077;26;20437;-60
2024/04/13 03:18:38;;;;;;;8.60;7.90;;;17.00;99.90;;;;;;5428946;26;20464;-60
2024/04/13 03:21:05;;;;;;;9.10;8.27;;;16.90;99.90;;;;;;5452273;26;20491;-60
2024/04/13 03:23:32;;;;;;;8.90;8.03;;;17.00;99.90;;;;;;5452957;26;20488;-60
2024/04/13 03:25:58;;;;;;;10.27;8.80;;;17.00;99.90;;;;;;5452365;26;20455;-60
2024/04/13 03:28:29;;;;;;;12.53;8.50;;;17.00;99.90;;;;;;5452732;26;20432;-60
2024/04/13 03:30:55;;;;;;;11.17;8.60;;;17.00;99.90;;;;;;5451053;26;20439;-60
2024/04/13 03:33:22;;;;;;;8.57;7.73;;;17.00;99.90;;;;;;5452069;26;20455;-60
2024/04/13 03:35:48;;;;;;;8.57;7.90;;;16.90;99.90;;;;;;5452076;26;20546;-60
2024/04/13 03:38:14;;;;;;;8.80;8.10;;;16.90;99.90;;;;;;5451792;26;20512;-60
2024/04/13 03:40:40;;;;;;;8.60;7.80;;;16.90;99.90;;;;;;5450739;26;20641;-60
2024/04/13 03:43:05;;;;;;;8.80;8.00;;;16.90;99.90;;;;;;5451838;26;20435;-60
2024/04/13 03:45:32;;;;;;;8.57;7.77;;;16.90;99.90;;;;;;5452660;26;20257;-60
2024/04/13 03:47:57;;;;;;;8.37;7.67;;;16.90;99.90;;;;;;5451358;26;20237;-60
2024/04/13 03:50:23;;;;;;;8.70;8.10;;;16.90;99.90;;;;;;5452152;26;20963;-60
2024/04/13 03:52:49;;;;;;;9.33;8.47;;;16.90;99.90;;;;;;5451285;26;20229;-60
2024/04/13 03:55:15;;;;;;;8.50;7.67;;;16.90;99.90;;;;;;5418328;26;20443;-60
2024/04/13 03:57:41;;;;;;;8.00;7.40;;;16.80;99.90;;;;;;5451621;26;20214;-60
2024/04/13 04:00:08;;;;;;;8.87;8.13;;;16.80;99.90;;;;;;5451345;26;20567;-60
2024/04/13 04:02:35;;;;;;;9.27;8.60;;;16.80;99.90;;;;;;5419770;26;20570;-60
2024/04/13 04:05:01;;;;;;;9.90;9.10;;;16.80;99.90;;;;;;5449001;26;20443;-60
2024/04/13 04:07:27;;;;;;;8.83;8.03;;;16.70;99.90;;;;;;5448476;26;20452;-60
2024/04/13 04:09:53;;;;;;;8.60;7.70;;;16.70;99.90;;;;;;5448809;26;20506;-60
2024/04/13 04:12:19;;;;;;;9.50;8.60;;;16.60;99.90;;;;;;5450692;26;20447;-60
2024/04/13 04:14:45;;;;;;;9.03;8.13;;;16.60;99.90;;;;;;5451092;26;20901;-60
2024/04/13 04:17:11;;;;;;;8.93;8.10;;;16.60;99.90;;;;;;5419357;26;20285;-60
2024/04/13 04:19:36;;;;;;;12.23;10.57;;;16.50;99.90;;;;;;5449279;26;20299;-60
2024/04/13 04:22:02;;;;;;;10.00;9.10;;;16.50;99.90;;;;;;5450554;26;20277;-60
2024/04/13 04:24:28;;;;;;;10.53;9.53;;;16.50;99.90;;;;;;5451015;26;20620;-60
2024/04/13 04:26:54;;;;;;;9.50;8.70;;;16.40;99.90;;;;;;5450074;26;20226;-60
2024/04/13 04:29:20;;;;;;;9.13;8.37;;;16.50;99.90;;;;;;5450857;26;21058;-59
2024/04/13 04:31:45;;;;;;;9.93;8.93;;;16.50;99.90;;;;;;5448965;26;20282;-59
2024/04/13 04:34:11;;;;;;;10.50;9.50;;;16.50;99.90;;;;;;5450628;26;20729;-60
2024/04/13 04:36:39;;;;;;;10.60;9.80;;;16.50;99.90;;;;;;5419113;26;20229;-59
2024/04/13 04:39:05;;;;;;;10.40;9.40;;;16.50;99.90;;;;;;5450631;26;20272;-59
2024/04/13 04:41:31;;;;;;;10.93;9.83;;;16.40;99.90;;;;;;5450426;26;20432;-60
2024/04/13 04:43:57;;;;;;;9.27;8.50;;;16.40;99.90;;;;;;5449805;26;20495;-59
2024/04/13 04:46:23;;;;;;;9.70;8.90;;;16.40;99.90;;;;;;5450814;26;20556;-59
2024/04/13 04:48:53;;;;;;;10.50;9.47;;;16.40;99.90;;;;;;5450361;26;20250;-60
2024/04/13 04:51:20;;;;;;;9.90;9.00;;;16.40;99.90;;;;;;5451989;26;20260;-59
2024/04/13 04:53:46;;;;;;;10.10;9.30;;;16.30;99.90;;;;;;5422608;26;20506;-60
2024/04/13 04:56:13;;;;;;;9.50;8.70;;;16.30;99.90;;;;;;5451847;26;20503;-60
2024/04/13 04:58:39;;;;;;;10.20;9.50;;;16.20;99.90;;;;;;5422433;26;20451;-59
2024/04/13 05:01:05;;;;;;;11.20;10.10;;;16.30;99.90;;;;;;5453563;26;20568;-60
2024/04/13 05:03:30;;;;;;;10.23;9.30;;;16.30;99.90;;;;;;5453994;26;20226;-59
2024/04/13 05:05:57;;;;;;;12.00;10.70;;;16.30;99.90;;;;;;5453184;26;20860;-60
2024/04/13 05:08:23;;;;;;;10.80;9.80;;;16.30;99.90;;;;;;5452209;26;20230;-59
2024/04/13 05:10:49;;;;;;;9.70;8.80;;;16.20;99.90;;;;;;5453290;26;20901;-60
2024/04/13 05:13:15;;;;;;;9.43;8.63;;;16.30;99.90;;;;;;5454807;26;20298;-59
2024/04/13 05:15:40;;;;;;;9.60;8.80;;;16.30;99.90;;;;;;5453159;26;20282;-59
2024/04/13 05:18:07;;;;;;;10.00;9.20;;;16.40;99.90;;;;;;5452856;26;20479;-59
2024/04/13 05:20:34;;;;;;;10.27;9.37;;;16.40;99.90;;;;;;5416824;26;20229;-60
2024/04/13 05:23:05;;;;;;;9.37;8.67;;;16.40;99.90;;;;;;5421436;26;21030;-60
2024/04/13 05:25:31;;;;;;;10.77;9.70;;;16.40;99.90;;;;;;5447942;26;20448;-61
2024/04/13 05:27:57;;;;;;;11.00;10.07;;;16.50;99.90;;;;;;5425308;26;20448;-64
2024/04/13 05:30:22;;;;;;;10.63;9.73;;;16.50;99.90;;;;;;5433084;26;20506;-63
2024/04/13 05:32:49;;;;;;;10.50;9.60;;;16.50;99.90;;;;;;5441723;26;20234;-63
2024/04/13 05:35:18;;;;;;;10.50;9.60;;;16.50;99.90;;;;;;5450224;26;20288;-64
2024/04/13 05:37:46;;;;;;;11.73;10.63;;;16.60;99.90;;;;;;5451642;26;20439;-64
2024/04/13 05:40:13;;;;;;;10.30;9.40;;;16.60;99.90;;;;;;5453245;26;20435;-64
2024/04/13 05:42:39;;;;;;;9.97;9.20;;;16.60;99.90;;;;;;5453283;26;20813;-63
2024/04/13 05:45:05;;;;;;;11.27;10.17;;;16.60;99.90;;;;;;5424733;26;20444;-63
2024/04/13 05:47:32;;;;;;;11.40;10.50;;;16.60;99.90;;;;;;5418258;26;20441;-63
2024/04/13 05:49:59;;;;;;;11.17;10.00;;;16.70;99.90;;;;;;5386478;26;20776;-64
2024/04/13 05:52:24;;;;;;;10.93;9.93;;;16.70;99.90;;;;;;5446872;26;20795;-64
2024/04/13 05:54:50;;;;;;;10.43;9.73;;;16.70;99.90;;;;;;5452302;26;20424;-62
2024/04/13 05:57:16;;;;;;;11.07;10.20;;;16.80;99.90;;;;;;5453396;26;20246;-64
2024/04/13 05:59:42;;;;;;;10.83;9.67;;;16.80;99.90;;;;;;5428658;26;20558;-63
2024/04/13 06:02:08;;;;;;;11.30;10.30;;;16.90;99.90;;;;;;5442762;26;20238;-64
2024/04/13 06:04:35;;;;;;;11.90;10.77;;;16.90;99.90;;;;;;5446499;26;20263;-64
2024/04/13 06:07:01;;;;;;;11.57;10.63;;;16.90;99.90;;;;;;5420099;26;20453;-63
2024/04/13 06:09:26;;;;;;;11.87;10.87;;;17.00;99.90;;;;;;5440731;26;20897;-62
2024/04/13 06:11:52;;;;;;;11.00;10.17;;;17.00;99.90;;;;;;5442966;26;20445;-64
2024/04/13 06:14:18;;;;;;;10.40;9.50;;;17.10;99.90;;;;;;5443378;26;20579;-63
2024/04/13 06:16:44;;;;;;;11.07;10.03;;;17.10;99.90;;;;;;5450175;26;20241;-61
2024/04/13 06:19:13;;;;;;;11.40;10.60;;;17.20;99.90;;;;;;5421925;26;20504;-63
2024/04/13 06:21:39;;;;;;;11.43;10.40;;;17.20;99.90;;;;;;5412570;26;20456;-63
2024/04/13 06:24:05;;;;;;;12.63;11.33;;;17.30;99.90;;;;;;5414388;26;20528;-64
2024/04/13 06:26:31;;;;;;;12.77;11.60;;;17.30;99.90;;;;;;5417231;26;20441;-64
2024/04/13 06:28:56;;;;;;;12.37;11.17;;;17.30;99.90;;;;;;5416418;26;20547;-64
2024/04/13 06:31:23;;;;;;;16.77;14.93;;;17.40;99.90;;;;;;5416848;26;20281;-64
2024/04/13 06:33:48;;;;;;;13.70;12.40;;;17.40;99.90;;;;;;5417292;26;20823;-61
2024/04/13 06:36:15;;;;;;;11.37;10.30;;;17.50;99.90;;;;;;5383923;26;20473;-64
2024/04/13 06:38:41;;;;;;;11.00;10.20;;;17.50;99.90;;;;;;5385775;26;20265;-63
2024/04/13 06:41:07;;;;;;;12.37;10.50;;;17.60;99.90;;;;;;5384211;26;20559;-64
2024/04/13 06:43:33;;;;;;;11.23;10.30;;;17.60;99.90;;;;;;5417232;26;20437;-63
2024/04/13 06:45:59;;;;;;;16.83;13.47;;;17.70;99.90;;;;;;5414546;26;20276;-63
2024/04/13 06:48:25;;;;;;;21.90;19.57;;;17.80;99.90;;;;;;5414256;26;20550;-63
2024/04/13 06:50:50;;;;;;;10.83;9.93;;;17.80;99.90;;;;;;5382847;26;20453;-63
2024/04/13 06:53:16;;;;;;;9.03;8.40;;;17.90;99.90;;;;;;5415683;26;20336;-64
2024/04/13 06:55:42;;;;;;;10.30;8.77;;;18.00;99.90;;;;;;5414018;26;20594;-64
2024/04/13 06:58:09;;;;;;;8.90;8.30;;;18.10;99.90;;;;;;5385124;26;20812;-64
2024/04/13 07:00:35;;;;;;;9.33;8.43;;;18.10;99.90;;;;;;5417344;26;20253;-64
2024/04/13 07:03:01;;;;;;;8.93;8.23;;;18.20;99.90;;;;;;5380832;26;20969;-63
2024/04/13 07:05:27;;;;;;;10.80;9.80;;;18.30;99.90;;;;;;5385034;26;20505;-64
2024/04/13 07:07:53;;;;;;;10.10;9.00;;;18.30;99.90;;;;;;5416150;26;20461;-64
2024/04/13 07:10:19;;;;;;;7.93;7.37;;;18.40;99.90;;;;;;5416815;26;20278;-64
2024/04/13 07:12:45;;;;;;;8.53;7.73;;;18.40;99.90;;;;;;5416600;26;20624;-64
2024/04/13 07:15:11;;;;;;;8.40;7.67;;;18.50;99.90;;;;;;5414769;26;20449;-64
2024/04/13 07:17:37;;;;;;;8.67;7.83;;;18.60;99.90;;;;;;5416488;26;20449;-64
2024/04/13 07:20:07;;;;;;;8.10;7.50;;;18.50;99.90;;;;;;5414847;26;20235;-63
2024/04/13 07:22:33;;;;;;;8.50;7.70;;;18.60;99.90;;;;;;5402889;26;20269;-63
2024/04/13 07:24:58;;;;;;;8.60;7.87;;;18.70;99.90;;;;;;5411663;26;20499;-62
2024/04/13 07:27:24;;;;;;;8.10;7.30;;;18.80;99.90;;;;;;5415918;26;20440;-64
2024/04/13 07:29:56;;;;;;;9.30;7.73;;;18.80;99.90;;;;;;5416382;26;20324;-64
2024/04/13 07:32:21;;;;;;;7.80;7.10;;;18.90;99.90;;;;;;5416874;26;20265;-64
2024/04/13 07:34:47;;;;;;;7.50;6.97;;;19.00;99.90;;;;;;5416717;26;20437;-65
2024/04/13 07:37:13;;;;;;;10.00;9.10;;;19.00;99.90;;;;;;5415991;26;20270;-64
2024/04/13 07:39:38;;;;;;;12.60;11.47;;;19.00;99.90;;;;;;5416641;26;20324;-64
2024/04/13 07:42:04;;;;;;;8.63;8.00;;;19.10;99.90;;;;;;5416129;26;20591;-64
2024/04/13 07:44:30;;;;;;;7.57;7.07;;;19.20;99.90;;;;;;5416595;26;20215;-64
2024/04/13 07:46:56;;;;;;;7.90;7.30;;;19.20;99.90;;;;;;5356228;26;20444;-64
2024/04/13 07:49:21;;;;;;;7.47;6.90;;;19.20;99.90;;;;;;5415959;26;20277;-67
2024/04/13 07:51:50;;;;;;;7.93;7.40;;;19.30;99.90;;;;;;5416556;26;20215;-67
2024/04/13 07:54:16;;;;;;;7.63;6.90;;;19.40;99.90;;;;;;5415268;26;20245;-66
2024/04/13 07:56:41;;;;;;;7.70;7.10;;;19.40;99.90;;;;;;5415900;26;20448;-67
2024/04/13 07:59:07;;;;;;;9.27;8.57;;;19.40;99.90;;;;;;5415544;26;20253;-66
2024/04/13 08:01:33;;;;;;;10.50;9.53;;;19.50;99.90;;;;;;5416032;26;20265;-66
2024/04/13 08:04:00;;;;;;;9.23;6.50;;;19.50;99.90;;;;;;5415613;26;20377;-65
2024/04/13 08:06:26;;;;;;;7.60;6.90;;;19.50;99.90;;;;;;5416421;26;20282;-67
2024/04/13 08:08:52;;;;;;;12.53;10.33;;;19.50;99.90;;;;;;5384999;26;20497;-66
2024/04/13 08:11:17;;;;;;;7.17;6.50;;;19.50;99.90;;;;;;5415290;26;20504;-67
2024/04/13 08:13:43;;;;;;;6.90;6.40;;;19.60;99.90;;;;;;5416025;26;20437;-67
2024/04/13 08:16:09;;;;;;;7.23;6.60;;;19.60;99.90;;;;;;5415395;26;20226;-67
2024/04/13 08:18:36;;;;;;;8.77;7.77;;;19.60;99.90;;;;;;5391006;26;20719;-66
2024/04/13 08:21:02;;;;;;;9.40;7.10;;;19.50;99.90;;;;;;5415189;26;20987;-65
2024/04/13 08:23:28;;;;;;;12.93;11.63;;;19.40;99.90;;;;;;5416002;26;20518;-67
2024/04/13 08:26:00;;;;;;;7.47;6.77;;;19.40;99.90;;;;;;5416020;26;20457;-67
2024/04/13 08:28:26;;;;;;;11.57;10.40;;;19.40;99.90;;;;;;5415170;26;20281;-67
2024/04/13 08:30:51;;;;;;;11.60;10.57;;;19.50;99.90;;;;;;5418479;26;20449;-67
2024/04/13 08:33:17;;;;;;;10.57;8.00;;;19.50;99.90;;;;;;5418171;26;20277;-66
2024/04/13 08:35:43;;;;;;;8.57;7.67;;;19.60;99.90;;;;;;5418749;26;20573;-67
2024/04/13 08:38:09;;;;;;;8.30;6.90;;;19.60;99.90;;;;;;5418343;26;20285;-67
2024/04/13 08:40:37;;;;;;;11.63;10.53;;;19.60;99.90;;;;;;5419059;26;20223;-67
2024/04/13 08:43:04;;;;;;;8.67;7.97;;;19.70;99.90;;;;;;5418625;26;20219;-66
2024/04/13 08:45:30;;;;;;;9.97;8.93;;;19.90;99.90;;;;;;5419346;26;20429;-69
2024/04/13 08:47:59;;;;;;;7.23;6.73;;;20.00;99.90;;;;;;5419090;26;20453;-69
2024/04/13 08:50:25;;;;;;;7.17;6.50;;;20.10;99.90;;;;;;5418547;26;20441;-69
2024/04/13 08:52:52;;;;;;;7.00;6.40;;;20.10;99.90;;;;;;5418992;26;20564;-69
2024/04/13 08:55:20;;;;;;;112.53;80.47;;;20.10;99.90;;;;;;5418349;26;20477;-67
2024/04/13 08:57:46;;;;;;;9.30;8.23;;;20.10;99.90;;;;;;5419199;26;20429;-67
2024/04/13 09:00:15;;;;;;;8.80;7.93;;;20.00;99.90;;;;;;5418328;26;20432;-69
2024/04/13 09:02:44;;;;;;;6.97;6.47;;;19.90;99.90;;;;;;5418952;26;20441;-66
2024/04/13 09:05:11;;;;;;;8.07;7.20;;;19.90;99.90;;;;;;5418217;26;20441;-65
2024/04/13 09:07:38;;;;;;;11.97;10.70;;;20.00;99.90;;;;;;5419178;26;20429;-67
2024/04/13 09:10:05;;;;;;;7.33;6.70;;;20.00;99.90;;;;;;5418162;26;20956;-66
2024/04/13 09:12:31;;;;;;;7.00;6.33;;;20.10;99.90;;;;;;5417152;26;20516;-67
2024/04/13 09:14:57;;;;;;;11.70;8.50;;;20.20;99.90;;;;;;5418827;26;20469;-67
2024/04/13 09:17:24;;;;;;;7.00;6.50;;;20.20;99.90;;;;;;5418244;26;20441;-67
2024/04/13 09:19:50;;;;;;;8.77;6.50;;;20.30;99.90;;;;;;5418977;26;20520;-67
2024/04/13 09:22:16;;;;;;;6.93;6.43;;;20.10;99.90;;;;;;5418239;26;20437;-67
2024/04/13 09:24:43;;;;;;;7.13;6.47;;;20.20;99.90;;;;;;5418489;26;20436;-67
2024/04/13 09:27:24;;;;;;;6.47;5.90;;;20.30;99.90;;;;;;5385615;26;20909;-66
2024/04/13 09:29:50;;;;;;;6.30;5.80;;;20.30;99.90;;;;;;5387441;26;20444;-67
2024/04/13 09:32:26;;;;;;;6.03;5.63;;;20.40;99.90;;;;;;5417831;26;21066;-68
2024/04/13 09:34:52;;;;;;;19.47;16.27;;;20.50;99.90;;;;;;5418477;26;20710;-66
2024/04/13 09:37:18;;;;;;;24.93;21.07;;;20.60;99.90;;;;;;5416364;26;20433;-66
2024/04/13 09:39:45;;;;;;;36.67;28.77;;;20.80;99.90;;;;;;5418346;26;20511;-67
2024/04/13 09:42:12;;;;;;;9.30;8.50;;;21.00;99.90;;;;;;5417621;26;20437;-66
2024/04/13 09:44:39;;;;;;;23.43;18.33;;;21.10;99.90;;;;;;5418407;26;20420;-66
2024/04/13 09:47:04;;;;;;;17.53;15.77;;;21.20;99.90;;;;;;5417804;26;20437;-66
2024/04/13 09:49:30;;;;;;;10.70;9.73;;;21.20;99.90;;;;;;5418114;26;21078;-66
2024/04/13 09:51:56;;;;;;;7.13;6.43;;;21.30;99.90;;;;;;5418211;26;20257;-66
2024/04/13 09:54:27;;;;;;;13.07;11.83;;;21.50;99.90;;;;;;5417579;26;20328;-66
2024/04/13 09:56:53;;;;;;;12.50;11.07;;;21.60;99.90;;;;;;5418177;26;20497;-66
2024/04/13 09:59:22;;;;;;;10.20;9.30;;;21.70;99.90;;;;;;5417355;26;21071;-66
2024/04/13 10:01:49;;;;;;;14.03;12.30;;;21.80;99.90;;;;;;5418173;26;20957;-66
2024/04/13 10:04:15;;;;;;;5.50;5.20;;;21.80;99.90;;;;;;5417418;26;20483;-66
2024/04/13 10:06:43;;;;;;;5.90;5.50;;;21.80;99.90;;;;;;5418315;26;20425;-66
2024/04/13 10:09:16;;;;;;;6.30;5.70;;;21.80;99.90;;;;;;5417159;26;20502;-66
2024/04/13 10:11:44;;;;;;;6.20;5.23;;;21.80;99.90;;;;;;5418256;26;20433;-66
2024/04/13 10:14:12;;;;;;;6.50;5.60;;;21.80;99.90;;;;;;5417183;26;20441;-66
2024/04/13 10:16:43;;;;;;;6.17;5.70;;;21.90;99.90;;;;;;5418058;26;20437;-66
2024/04/13 10:19:17;;;;;;;6.20;5.80;;;21.90;99.90;;;;;;5406406;26;20475;-66
2024/04/13 10:21:43;;;;;;;5.90;5.50;;;21.80;99.90;;;;;;5454105;26;20911;-66
2024/04/13 10:24:16;;;;;;;6.17;5.67;;;21.80;99.90;;;;;;5421854;26;20524;-66
2024/04/13 10:26:42;;;;;;;5.80;5.40;;;21.90;99.90;;;;;;5454171;26;20483;-66
2024/04/13 10:29:08;;;;;;;7.23;5.67;;;22.00;99.90;;;;;;5453514;26;20436;-66
2024/04/13 10:31:34;;;;;;;5.70;5.30;;;22.10;99.90;;;;;;5453709;26;20292;-66
2024/04/13 10:34:00;;;;;;;5.90;5.40;;;22.20;99.90;;;;;;5453674;26;20436;-66
2024/04/13 10:36:31;;;;;;;6.60;6.20;;;22.10;99.90;;;;;;5453083;26;20218;-66
2024/04/13 10:38:58;;;;;;;6.27;5.87;;;22.30;99.90;;;;;;5422081;26;20773;-66
2024/04/13 10:41:36;;;;;;;108.37;75.50;;;22.40;99.90;;;;;;5421051;26;20487;-66
2024/04/13 10:44:06;;;;;;;13.03;11.80;;;22.50;99.90;;;;;;5453424;26;20423;-66
2024/04/13 10:46:34;;;;;;;10.53;8.70;;;22.40;99.90;;;;;;5452982;26;20509;-66
2024/04/13 10:49:01;;;;;;;8.43;5.90;;;22.40;99.90;;;;;;5452678;26;20460;-66
2024/04/13 10:51:27;;;;;;;5.77;5.47;;;22.30;99.90;;;;;;5452638;26;20503;-66
2024/04/13 10:53:52;;;;;;;6.47;5.80;;;22.30;99.90;;;;;;5453388;26;20419;-66
2024/04/13 10:56:18;;;;;;;6.00;4.67;;;22.30;99.90;;;;;;5452869;26;20222;-66
2024/04/13 10:58:44;;;;;;;5.10;4.70;;;22.40;99.90;;;;;;5453141;26;20246;-66
2024/04/13 11:01:10;;;;;;;7.23;4.87;;;22.50;99.90;;;;;;5452463;26;20326;-66
2024/04/13 11:03:36;;;;;;;5.00;4.60;;;22.60;99.90;;;;;;5453346;26;20487;-66
2024/04/13 11:06:02;;;;;;;5.53;5.07;;;22.80;99.70;;;;;;5452571;26;20243;-67
2024/04/13 11:08:28;;;;;;;4.97;4.67;;;22.90;99.90;;;;;;5420845;26;20777;-66
2024/04/13 11:10:55;;;;;;;5.50;5.10;;;23.00;99.50;;;;;;5453201;26;20226;-66
2024/04/13 11:13:22;;;;;;;5.30;4.90;;;23.20;98.90;;;;;;5452325;26;20491;-66
2024/04/13 11:15:49;;;;;;;5.80;5.30;;;23.20;98.70;;;;;;5452918;26;20500;-66
2024/04/13 11:18:15;;;;;;;5.77;5.27;;;23.40;97.90;;;;;;5444950;26;20868;-66
2024/04/13 11:20:44;;;;;;;4.83;4.43;;;23.40;97.20;;;;;;5417270;26;20433;-66
2024/04/13 11:23:10;;;;;;;5.10;4.70;;;23.30;98.40;;;;;;5416269;26;20223;-66
2024/04/13 11:25:36;;;;;;;5.47;5.03;;;23.30;97.60;;;;;;5385758;26;20824;-66
2024/04/13 11:28:03;;;;;;;5.17;4.77;;;23.30;98.00;;;;;;5417016;26;20231;-66
2024/04/13 11:30:31;;;;;;;5.07;4.60;;;23.40;98.20;;;;;;5416177;26;20318;-66
2024/04/13 11:32:59;;;;;;;5.50;5.17;;;23.50;96.40;;;;;;5416718;26;20437;-66
2024/04/13 11:35:25;;;;;;;5.50;5.03;;;23.40;95.20;;;;;;5416062;26;20437;-66
2024/04/13 11:37:59;;;;;;;5.67;5.30;;;23.40;95.00;;;;;;5416900;26;20485;-66
2024/04/13 11:40:37;;;;;;;4.70;4.40;;;23.30;95.10;;;;;;5415915;26;20433;-66
2024/04/13 11:43:04;;;;;;;4.90;4.60;;;23.30;95.20;;;;;;5416669;26;20484;-66
2024/04/13 11:45:29;;;;;;;5.93;5.33;;;23.40;95.10;;;;;;5414880;26;20775;-66
2024/04/13 11:47:56;;;;;;;5.27;4.87;;;23.40;95.40;;;;;;5415976;26;20542;-66
2024/04/13 11:50:22;;;;;;;5.50;5.20;;;23.50;95.00;;;;;;5415674;26;20218;-66
2024/04/13 11:52:48;;;;;;;6.10;5.60;;;23.50;95.40;;;;;;5416379;26;20429;-66
2024/04/13 11:55:21;;;;;;;5.70;5.30;;;23.60;95.90;;;;;;5415924;26;20440;-66
2024/04/13 11:57:47;;;;;;;6.60;6.00;;;23.60;96.20;;;;;;5385452;26;20485;-66
2024/04/13 12:00:14;;;;;;;5.97;5.57;;;23.60;96.40;;;;;;5415560;26;20425;-66
2024/04/13 12:02:40;;;;;;;5.37;5.00;;;23.60;95.50;;;;;;5419758;26;20555;-66
2024/04/13 12:05:06;;;;;;;5.30;5.00;;;23.70;95.70;;;;;;5419883;26;20440;-66
2024/04/13 12:07:32;;;;;;;6.07;5.70;;;23.60;95.90;;;;;;5419101;26;20554;-66
2024/04/13 12:09:58;;;;;;;6.20;5.40;;;23.70;95.00;;;;;;5388234;26;20433;-66
2024/04/13 12:12:24;;;;;;;5.17;4.77;;;23.60;93.90;;;;;;5418871;26;20879;-66
2024/04/13 12:14:52;;;;;;;5.77;5.17;;;23.70;94.40;;;;;;5419704;26;20215;-66
2024/04/13 12:17:18;;;;;;;4.90;4.60;;;23.70;95.60;;;;;;5418890;26;20257;-66
2024/04/13 12:19:47;;;;;;;5.30;4.80;;;23.70;95.70;;;;;;5419628;26;20464;-66
2024/04/13 12:22:13;;;;;;;4.83;4.43;;;23.80;94.70;;;;;;5419584;26;20489;-66
2024/04/13 12:24:39;;;;;;;5.00;4.70;;;23.90;95.10;;;;;;5419933;26;20421;-66
2024/04/13 12:27:05;;;;;;;4.90;4.60;;;23.90;95.50;;;;;;5419815;26;21012;-67
2024/04/13 12:29:32;;;;;;;4.53;4.20;;;24.00;93.80;;;;;;5418980;26;20219;-66
2024/04/13 12:31:58;;;;;;;4.70;4.40;;;24.10;94.50;;;;;;5419768;26;20434;-66
2024/04/13 12:34:24;;;;;;;4.90;4.60;;;24.20;93.30;;;;;;5418934;26;20480;-66
2024/04/13 12:36:50;;;;;;;5.80;5.20;;;24.20;93.10;;;;;;5419923;26;20472;-66
2024/04/13 12:39:19;;;;;;;4.90;4.60;;;24.20;93.60;;;;;;5418545;26;20261;-66
2024/04/13 12:41:44;;;;;;;5.27;4.97;;;24.10;93.90;;;;;;5419172;26;20481;-67